createdAt,value
2023-02-19T00:03:08.550Z,12.84
2023-02-19T00:08:10.197Z,12.75
2023-02-19T00:13:11.844Z,12.75
2023-02-19T00:18:13.684Z,12.80
2023-02-19T00:23:15.460Z,12.73
2023-02-19T00:28:17.097Z,12.65
2023-02-19T00:33:18.755Z,12.59
2023-02-19T00:38:20.381Z,12.60
2023-02-19T00:43:22.135Z,12.46
2023-02-19T00:48:23.725Z,12.47
2023-02-19T00:53:25.582Z,12.45
2023-02-19T00:58:27.308Z,12.40
2023-02-19T01:03:29.308Z,12.42
2023-02-19T01:08:32.087Z,12.33
2023-02-19T01:13:36.627Z,12.37
2023-02-19T01:18:38.997Z,12.36
2023-02-19T01:23:40.966Z,12.41
2023-02-19T01:28:43.030Z,12.38
2023-02-19T01:33:50.054Z,12.40
2023-02-19T01:38:51.734Z,12.38
2023-02-19T01:44:00.670Z,12.42
2023-02-19T01:49:28.625Z,12.40
2023-02-19T01:54:35.229Z,12.42
2023-02-19T01:59:38.352Z,12.35
2023-02-19T02:04:40.181Z,12.27
2023-02-19T02:10:01.043Z,12.22
2023-02-19T02:15:03.846Z,12.23
2023-02-19T02:20:36.062Z,12.21
2023-02-19T02:25:52.889Z,12.19
2023-02-19T02:30:59.479Z,12.11
2023-02-19T02:36:07.668Z,12.13
2023-02-19T02:41:10.389Z,12.17
2023-02-19T02:46:17.426Z,12.24
2023-02-19T02:51:29.145Z,12.33
2023-02-19T02:56:50.067Z,12.35
2023-02-19T03:02:13.912Z,12.27
2023-02-19T03:07:15.611Z,12.27
2023-02-19T03:12:38.170Z,12.14
2023-02-19T03:18:05.069Z,12.13
2023-02-19T03:23:09.158Z,12.04
2023-02-19T03:28:16.011Z,11.98
2023-02-19T03:33:28.484Z,11.91
2023-02-19T03:38:37.771Z,11.83
2023-02-19T03:43:54.044Z,11.73
2023-02-19T03:49:03.969Z,11.81
2023-02-19T03:54:15.582Z,11.82
2023-02-19T03:59:32.249Z,11.77
2023-02-19T04:04:50.921Z,11.79
2023-02-19T04:09:54.573Z,11.68
2023-02-19T04:15:10.198Z,11.66
2023-02-19T04:20:13.846Z,11.56
2023-02-19T04:25:15.504Z,11.58
2023-02-19T04:30:17.867Z,11.64
2023-02-19T04:35:19.515Z,11.55
2023-02-19T04:40:21.256Z,11.56
2023-02-19T04:45:22.883Z,11.51
2023-02-19T04:50:25.008Z,11.59
2023-02-19T04:55:26.705Z,11.53
2023-02-19T05:00:28.382Z,11.48
2023-02-19T05:05:29.969Z,11.38
2023-02-19T05:10:31.839Z,11.30
2023-02-19T05:15:33.792Z,11.33
2023-02-19T05:20:36.119Z,11.41
2023-02-19T05:25:38.128Z,11.31
2023-02-19T05:30:39.961Z,11.34
2023-02-19T05:35:46.695Z,11.23
2023-02-19T05:40:48.754Z,11.13
2023-02-19T05:45:50.321Z,11.07
2023-02-19T05:50:51.989Z,11.02
2023-02-19T05:55:53.615Z,11.01
2023-02-19T06:00:55.980Z,11.03
2023-02-19T06:05:57.599Z,11.02
2023-02-19T06:10:59.204Z,11.01
2023-02-19T06:16:04.060Z,11.04
2023-02-19T06:21:08.274Z,11.02
2023-02-19T06:26:16.094Z,10.97
2023-02-19T06:31:19.673Z,11.02
2023-02-19T06:36:22.686Z,11.02
2023-02-19T06:41:24.302Z,10.97
2023-02-19T06:46:26.237Z,10.99
2023-02-19T06:51:29.712Z,10.95
2023-02-19T06:56:31.622Z,11.07
2023-02-19T07:01:34.925Z,11.20
2023-02-19T07:06:37.508Z,11.21
2023-02-19T07:11:40.261Z,11.33
2023-02-19T07:16:42.382Z,11.53
2023-02-19T07:21:44.017Z,11.54
2023-02-19T07:26:45.812Z,11.65
2023-02-19T07:31:47.481Z,11.72
2023-02-19T07:36:49.157Z,11.80
2023-02-19T07:41:50.787Z,11.87
2023-02-19T07:47:01.146Z,11.96
2023-02-19T07:52:02.825Z,12.10
2023-02-19T07:57:04.443Z,12.10
2023-02-19T08:02:34.527Z,12.14
2023-02-19T08:07:37.624Z,12.18
2023-02-19T08:12:57.561Z,12.16
2023-02-19T08:17:59.184Z,12.18
2023-02-19T08:23:00.821Z,12.27
2023-02-19T08:28:02.702Z,12.21
2023-02-19T08:33:06.634Z,12.22
2023-02-19T08:38:09.852Z,12.34
2023-02-19T08:43:16.158Z,12.47
2023-02-19T08:48:17.775Z,12.60
2023-02-19T08:53:19.436Z,12.58
2023-02-19T08:58:21.734Z,12.50
2023-02-19T09:03:23.350Z,12.48
2023-02-19T09:08:24.976Z,12.48
2023-02-19T09:13:26.899Z,12.41
2023-02-19T09:18:28.572Z,12.32
2023-02-19T09:23:32.574Z,12.37
2023-02-19T09:28:34.228Z,12.52
2023-02-19T09:33:36.066Z,12.89
2023-02-19T09:38:37.747Z,12.99
2023-02-19T09:43:39.852Z,13.04
2023-02-19T09:48:42.056Z,13.20
2023-02-19T09:53:47.842Z,13.27
2023-02-19T09:58:55.326Z,13.40
2023-02-19T10:03:57.685Z,13.45
2023-02-19T10:09:23.629Z,13.58
2023-02-19T10:19:43.566Z,13.88
2023-02-19T10:24:49.824Z,14.06
2023-02-19T10:29:51.645Z,14.21
2023-02-19T10:35:16.868Z,14.35
2023-02-19T10:40:21.619Z,14.37
2023-02-19T10:45:30.357Z,14.42
2023-02-19T10:50:39.249Z,14.54
2023-02-19T10:55:41.221Z,14.73
2023-02-19T11:00:42.841Z,14.88
2023-02-19T11:06:02.055Z,14.87
2023-02-19T11:11:03.716Z,15.05
2023-02-19T11:16:05.828Z,15.15
2023-02-19T11:21:08.561Z,15.49
2023-02-19T11:26:21.538Z,15.58
2023-02-19T11:31:27.555Z,15.75
2023-02-19T11:36:34.694Z,16.08
2023-02-19T11:42:04.415Z,15.83
2023-02-19T11:47:27.970Z,16.09
2023-02-19T11:53:00.426Z,16.04
2023-02-19T11:58:36.078Z,15.89
2023-02-19T12:03:50.786Z,15.52
2023-02-19T12:08:55.107Z,15.03
2023-02-19T12:14:22.422Z,14.26
2023-02-19T12:19:43.017Z,13.53
2023-02-19T12:24:47.593Z,13.17
2023-02-19T12:30:14.650Z,13.22
2023-02-19T12:35:25.837Z,13.15
2023-02-19T12:40:38.797Z,13.24
2023-02-19T12:46:01.943Z,13.38
2023-02-19T12:51:18.008Z,13.50
2023-02-19T12:56:48.824Z,13.45
2023-02-19T13:01:53.784Z,13.73
2023-02-19T13:07:06.066Z,13.67
2023-02-19T13:12:14.065Z,13.76
2023-02-19T13:17:45.029Z,13.70
2023-02-19T13:23:11.221Z,13.47
2023-02-19T13:28:38.617Z,13.75
2023-02-19T13:33:54.302Z,14.27
2023-02-19T13:38:57.500Z,14.60
2023-02-19T13:44:04.897Z,14.71
2023-02-19T13:49:37.259Z,14.66
2023-02-19T13:54:40.363Z,14.91
2023-02-19T13:59:44.993Z,14.53
2023-02-19T14:05:01.478Z,14.10
2023-02-19T14:10:08.694Z,13.82
2023-02-19T14:15:52.584Z,12.43
2023-02-19T14:21:07.736Z,11.77
2023-02-19T14:26:09.692Z,11.54
2023-02-19T14:31:19.267Z,11.40
2023-02-19T14:36:44.239Z,11.35
2023-02-19T14:41:51.058Z,11.29
2023-02-19T14:47:13.788Z,11.14
2023-02-19T14:52:30.281Z,11.19
2023-02-19T14:57:38.037Z,11.02
2023-02-19T15:02:43.457Z,11.13
2023-02-19T15:07:45.752Z,11.26
2023-02-19T15:13:01.291Z,11.23
2023-02-19T15:18:05.442Z,11.41
2023-02-19T15:23:08.309Z,11.42
2023-02-19T15:28:25.188Z,11.46
2023-02-19T15:33:28.260Z,11.31
2023-02-19T15:38:30.134Z,11.27
2023-02-19T15:43:39.927Z,10.93
2023-02-19T15:48:47.615Z,10.85
2023-02-19T15:53:53.524Z,10.71
2023-02-19T15:59:01.247Z,10.48
2023-02-19T16:04:04.255Z,10.04
2023-02-19T16:09:06.935Z,8.86
2023-02-19T16:14:29.364Z,8.93
2023-02-19T16:19:42.593Z,8.83
2023-02-19T16:24:46.832Z,8.69
2023-02-19T16:29:51.502Z,8.75
2023-02-19T16:34:53.301Z,8.81
2023-02-19T16:40:17.434Z,8.77
2023-02-19T16:45:19.161Z,8.70
2023-02-19T16:50:23.847Z,8.77
2023-02-19T16:55:26.670Z,8.74
2023-02-19T17:00:31.708Z,8.75
2023-02-19T17:05:33.720Z,8.77
2023-02-19T17:10:35.540Z,8.76
2023-02-19T17:15:37.153Z,8.77
2023-02-19T17:20:40.579Z,8.71
2023-02-19T17:25:42.284Z,8.74
2023-02-19T17:30:44.010Z,8.79
2023-02-19T17:35:45.749Z,8.70
2023-02-19T17:40:47.609Z,8.71
2023-02-19T17:45:49.284Z,8.81
2023-02-19T17:50:52.222Z,8.72
2023-02-19T17:55:55.855Z,8.65
2023-02-19T18:00:57.578Z,8.54
2023-02-19T18:05:59.415Z,8.46
2023-02-19T18:11:01.077Z,8.45
2023-02-19T18:16:02.730Z,8.60
2023-02-19T18:21:08.597Z,8.56
2023-02-19T18:26:11.454Z,8.59
2023-02-19T18:31:13.414Z,8.58
2023-02-19T18:36:15.460Z,8.57
2023-02-19T18:41:20.304Z,8.48
2023-02-19T18:46:22.267Z,8.60
2023-02-19T18:51:24.342Z,8.62
2023-02-19T18:56:26.209Z,8.57
2023-02-19T19:01:27.854Z,8.53
2023-02-19T19:06:29.541Z,8.55
2023-02-19T19:11:31.784Z,8.56
2023-02-19T19:16:33.714Z,8.59
2023-02-19T19:21:35.315Z,8.62
2023-02-19T19:26:44.670Z,8.57
2023-02-19T19:31:46.751Z,8.40
2023-02-19T19:36:48.804Z,8.28
2023-02-19T19:41:54.949Z,8.22
2023-02-19T19:46:56.817Z,8.05
2023-02-19T19:52:01.116Z,7.72
2023-02-19T19:57:03.092Z,7.58
2023-02-19T20:02:06.164Z,7.52
2023-02-19T20:07:08.041Z,7.33
2023-02-19T20:12:10.882Z,7.32
2023-02-19T20:17:13.020Z,7.39
2023-02-19T20:22:14.770Z,7.27
2023-02-19T20:27:16.587Z,7.29
2023-02-19T20:32:21.068Z,7.08
2023-02-19T20:37:22.921Z,6.79
2023-02-19T20:42:24.709Z,6.60
2023-02-19T20:47:27.500Z,6.68
2023-02-19T20:52:29.093Z,6.52
2023-02-19T20:57:30.874Z,6.61
2023-02-19T21:02:32.600Z,6.62
2023-02-19T21:07:34.239Z,6.56
2023-02-19T21:12:36.527Z,6.42
2023-02-19T21:17:38.312Z,6.46
2023-02-19T21:22:39.902Z,6.47
2023-02-19T21:27:41.509Z,6.38
2023-02-19T21:32:43.171Z,6.34
2023-02-19T21:37:44.849Z,6.34
2023-02-19T21:42:46.569Z,6.29
2023-02-19T21:47:51.996Z,6.18
2023-02-19T21:52:53.676Z,6.08
2023-02-19T21:57:55.249Z,6.14
2023-02-19T22:02:56.940Z,6.08
2023-02-19T22:08:00.044Z,6.04
2023-02-19T22:13:01.713Z,5.95
2023-02-19T22:18:03.672Z,5.99
2023-02-19T22:23:06.043Z,5.84
2023-02-19T22:28:07.885Z,5.78
2023-02-19T22:33:09.837Z,5.77
2023-02-19T22:38:11.729Z,5.66
2023-02-19T22:43:17.273Z,5.71
2023-02-19T22:48:29.448Z,5.75
2023-02-19T22:53:31.964Z,5.92
2023-02-19T22:58:33.563Z,6.01
2023-02-19T23:03:35.257Z,6.12
2023-02-19T23:08:37.077Z,6.02
2023-02-19T23:13:42.138Z,5.98
2023-02-19T23:18:43.984Z,5.87
2023-02-19T23:23:46.225Z,5.83
2023-02-19T23:28:48.155Z,5.78
2023-02-19T23:33:50.019Z,5.64
2023-02-19T23:38:51.970Z,5.63
2023-02-19T23:43:54.401Z,5.62
2023-02-19T23:48:56.280Z,5.47
2023-02-19T23:53:57.916Z,5.35
2023-02-19T23:58:59.751Z,5.34
